createdAt,value
2019-02-06T00:02:14.709Z,-3.96
2019-02-06T00:07:18.173Z,-3.92
2019-02-06T00:12:19.760Z,-3.84
2019-02-06T00:17:24.456Z,-4.08
2019-02-06T00:22:26.191Z,-4.13
2019-02-06T00:27:27.777Z,-4.07
2019-02-06T00:32:29.198Z,-4.03
2019-02-06T00:37:30.423Z,-4.03
2019-02-06T00:42:34.287Z,-4.12
2019-02-06T00:47:36.663Z,-4.12
2019-02-06T00:52:38.320Z,-4.20
2019-02-06T00:57:40.529Z,-4.33
2019-02-06T01:02:41.849Z,-4.40
2019-02-06T01:07:44.818Z,-4.44
2019-02-06T01:12:46.642Z,-4.68
2019-02-06T01:17:49.041Z,-4.66
2019-02-06T01:22:50.659Z,-4.77
2019-02-06T01:27:52.021Z,-4.78
2019-02-06T01:32:53.341Z,-4.72
2019-02-06T01:37:54.601Z,-4.66
2019-02-06T01:42:56.057Z,-4.59
2019-02-06T01:47:57.878Z,-4.60
2019-02-06T01:52:59.081Z,-4.59
2019-02-06T01:58:00.278Z,-4.65
2019-02-06T02:03:01.579Z,-4.69
2019-02-06T02:08:03.286Z,-4.67
2019-02-06T02:13:04.506Z,-4.77
2019-02-06T02:18:05.940Z,-4.76
2019-02-06T02:23:07.301Z,-4.80
2019-02-06T02:28:10.248Z,-4.82
2019-02-06T02:33:11.714Z,-4.94
2019-02-06T02:38:13.005Z,-4.99
2019-02-06T02:43:14.385Z,-5.24
2019-02-06T02:48:15.823Z,-5.14
2019-02-06T02:53:17.074Z,-5.06
2019-02-06T02:58:19.586Z,-4.99
2019-02-06T03:03:37.961Z,-4.98
2019-02-06T03:08:39.208Z,-5.10
2019-02-06T03:13:40.486Z,-5.19
2019-02-06T03:18:41.673Z,-5.09
2019-02-06T03:23:43.584Z,-5.15
2019-02-06T03:28:45.058Z,-5.13
2019-02-06T03:33:46.376Z,-5.23
2019-02-06T03:38:47.835Z,-5.22
2019-02-06T03:43:49.020Z,-5.31
2019-02-06T03:48:51.305Z,-5.42
2019-02-06T03:53:53.608Z,-5.43
2019-02-06T03:58:54.835Z,-5.51
2019-02-06T04:03:56.386Z,-5.46
2019-02-06T04:08:57.683Z,-5.46
2019-02-06T04:13:59.114Z,-5.67
2019-02-06T04:19:00.353Z,-5.85
2019-02-06T04:24:01.760Z,-5.80
2019-02-06T04:29:03.199Z,-5.73
2019-02-06T04:34:04.431Z,-5.79
2019-02-06T04:39:06.320Z,-5.76
2019-02-06T04:44:08.047Z,-5.92
2019-02-06T04:49:09.528Z,-5.77
2019-02-06T04:54:10.762Z,-5.74
2019-02-06T04:59:12.441Z,-5.84
2019-02-06T05:04:13.608Z,-5.87
2019-02-06T05:09:15.142Z,-5.95
2019-02-06T05:14:16.424Z,-5.99
2019-02-06T05:19:17.769Z,-5.90
2019-02-06T05:24:18.961Z,-5.81
2019-02-06T05:29:20.177Z,-5.85
2019-02-06T05:34:21.655Z,-5.81
2019-02-06T05:39:22.958Z,-5.88
2019-02-06T05:44:24.170Z,-5.93
2019-02-06T05:49:27.098Z,-6.01
2019-02-06T05:54:28.652Z,-6.00
2019-02-06T05:59:30.079Z,-5.84
2019-02-06T06:04:31.455Z,-5.94
2019-02-06T06:09:33.358Z,-5.94
2019-02-06T06:14:34.994Z,-5.96
2019-02-06T06:19:36.196Z,-6.02
2019-02-06T06:24:37.988Z,-6.03
2019-02-06T06:29:39.263Z,-6.16
2019-02-06T06:34:40.464Z,-6.18
2019-02-06T06:39:41.624Z,-6.18
2019-02-06T06:44:42.914Z,-6.14
2019-02-06T06:49:44.625Z,-6.15
2019-02-06T06:54:45.830Z,-5.74
2019-02-06T06:59:47.136Z,-5.36
2019-02-06T07:04:48.888Z,-5.37
2019-02-06T07:09:50.090Z,-5.41
2019-02-06T07:14:51.277Z,-5.30
2019-02-06T07:19:52.427Z,-5.23
2019-02-06T07:24:53.855Z,-5.10
2019-02-06T07:29:55.085Z,-4.92
2019-02-06T07:34:56.150Z,-4.78
2019-02-06T07:39:57.442Z,-4.63
2019-02-06T07:44:58.881Z,-4.52
2019-02-06T07:50:00.454Z,-4.21
2019-02-06T07:55:01.948Z,-3.92
2019-02-06T08:00:06.840Z,-3.76
2019-02-06T08:05:18.951Z,-3.51
2019-02-06T08:10:28.130Z,-3.78
2019-02-06T08:15:29.430Z,-3.75
2019-02-06T08:20:30.675Z,-3.47
2019-02-06T08:25:31.812Z,-3.38
2019-02-06T08:30:37.999Z,-3.34
2019-02-06T08:35:39.504Z,-3.00
2019-02-06T08:40:40.829Z,-2.99
2019-02-06T08:45:42.119Z,-2.67
2019-02-06T08:50:43.570Z,-2.00
2019-02-06T08:55:44.933Z,-1.69
2019-02-06T09:00:46.083Z,-1.39
2019-02-06T09:05:47.652Z,-0.66
2019-02-06T09:10:49.001Z,0.57
2019-02-06T09:15:50.275Z,1.58
2019-02-06T09:20:52.848Z,1.90
2019-02-06T09:25:58.928Z,1.80
2019-02-06T09:31:01.445Z,2.45
2019-02-06T09:36:03.645Z,3.01
2019-02-06T09:41:05.087Z,4.25
2019-02-06T09:46:06.405Z,5.21
2019-02-06T09:51:07.827Z,5.09
2019-02-06T09:56:11.260Z,5.23
2019-02-06T10:01:13.631Z,5.75
2019-02-06T10:06:15.328Z,4.37
2019-02-06T10:11:16.709Z,4.84
2019-02-06T10:16:20.129Z,4.22
2019-02-06T10:21:21.198Z,4.52
2019-02-06T10:26:22.607Z,4.38
2019-02-06T10:31:23.913Z,4.43
2019-02-06T10:36:25.352Z,4.01
2019-02-06T10:41:26.496Z,5.07
2019-02-06T10:46:29.464Z,6.05
2019-02-06T10:51:30.790Z,7.22
2019-02-06T10:56:32.072Z,7.62
2019-02-06T11:01:33.252Z,6.69
2019-02-06T11:06:35.195Z,4.89
2019-02-06T11:11:36.333Z,4.81
2019-02-06T11:16:40.602Z,4.49
2019-02-06T11:21:49.283Z,5.59
2019-02-06T11:26:57.563Z,5.76
2019-02-06T11:32:01.321Z,6.57
2019-02-06T11:37:02.846Z,5.40
2019-02-06T11:42:06.797Z,6.38
2019-02-06T11:47:08.399Z,6.42
2019-02-06T11:52:13.628Z,6.65
2019-02-06T11:57:17.672Z,7.27
2019-02-06T12:02:20.983Z,7.19
2019-02-06T12:07:22.384Z,6.64
2019-02-06T12:12:24.118Z,7.08
2019-02-06T12:17:25.644Z,8.12
2019-02-06T12:22:26.780Z,8.70
2019-02-06T12:27:28.223Z,9.13
2019-02-06T12:32:30.126Z,9.08
2019-02-06T12:37:32.006Z,8.94
2019-02-06T12:42:35.523Z,9.19
2019-02-06T12:47:37.141Z,8.46
2019-02-06T12:52:38.847Z,8.68
2019-02-06T12:57:40.246Z,7.85
2019-02-06T13:02:41.806Z,7.62
2019-02-06T13:07:43.930Z,7.72
2019-02-06T13:12:45.397Z,7.89
2019-02-06T13:17:47.507Z,7.94
2019-02-06T13:22:49.433Z,7.75
2019-02-06T13:27:51.904Z,7.91
2019-02-06T13:32:53.690Z,7.24
2019-02-06T13:37:57.690Z,7.40
2019-02-06T13:42:59.055Z,7.32
2019-02-06T13:48:00.714Z,7.20
2019-02-06T13:53:02.230Z,7.23
2019-02-06T13:58:05.431Z,7.37
2019-02-06T14:03:06.842Z,7.33
2019-02-06T14:08:11.607Z,7.41
2019-02-06T14:13:12.991Z,7.40
2019-02-06T14:18:14.689Z,7.51
2019-02-06T14:23:29.022Z,7.32
2019-02-06T14:28:57.299Z,7.32
2019-02-06T14:34:12.068Z,7.19
2019-02-06T14:39:33.658Z,7.26
2019-02-06T14:44:57.152Z,7.31
2019-02-06T14:50:11.640Z,7.25
2019-02-06T14:55:30.123Z,7.24
2019-02-06T15:00:59.905Z,7.16
2019-02-06T15:06:12.900Z,7.07
2019-02-06T15:11:24.062Z,7.05
2019-02-06T15:16:46.401Z,7.05
2019-02-06T15:21:51.607Z,7.05
2019-02-06T15:27:13.648Z,6.82
2019-02-06T15:32:33.987Z,6.69
2019-02-06T15:37:57.012Z,6.52
2019-02-06T15:43:02.072Z,6.40
2019-02-06T15:48:24.247Z,6.23
2019-02-06T15:53:36.373Z,5.95
2019-02-06T15:58:58.417Z,5.75
2019-02-06T16:04:34.876Z,5.56
2019-02-06T16:09:55.531Z,5.23
2019-02-06T16:15:03.673Z,4.89
2019-02-06T16:20:28.268Z,4.71
2019-02-06T16:25:37.762Z,4.41
2019-02-06T16:30:57.684Z,4.09
2019-02-06T16:36:11.488Z,3.78
2019-02-06T16:41:37.894Z,3.53
2019-02-06T16:47:05.903Z,3.14
2019-02-06T16:52:17.910Z,2.91
2019-02-06T16:57:35.344Z,2.99
2019-02-06T17:02:43.385Z,2.84
2019-02-06T17:07:54.808Z,2.59
2019-02-06T17:13:20.877Z,2.28
2019-02-06T17:18:42.891Z,1.97
2019-02-06T17:23:50.943Z,1.90
2019-02-06T17:28:59.358Z,1.68
2019-02-06T17:34:22.928Z,1.42
2019-02-06T17:39:58.790Z,1.36
2019-02-06T17:45:13.189Z,1.17
2019-02-06T17:50:27.130Z,0.98
2019-02-06T17:55:29.799Z,0.91
2019-02-06T18:00:37.995Z,0.65
2019-02-06T18:05:40.335Z,0.42
2019-02-06T18:10:41.993Z,0.19
2019-02-06T18:15:43.630Z,0.14
2019-02-06T18:20:44.930Z,0.15
2019-02-06T18:25:46.633Z,0.12
2019-02-06T18:30:48.129Z,0.14
2019-02-06T18:35:49.564Z,-0.01
2019-02-06T18:40:50.839Z,-0.15
2019-02-06T18:45:52.480Z,-0.29
2019-02-06T18:50:54.433Z,-0.33
2019-02-06T18:55:56.032Z,-0.14
2019-02-06T19:00:57.486Z,0.05
2019-02-06T19:05:59.927Z,-0.11
2019-02-06T19:11:01.841Z,-0.41
2019-02-06T19:16:06.648Z,-0.61
2019-02-06T19:21:08.611Z,-0.89
2019-02-06T19:26:10.707Z,-0.92
2019-02-06T19:31:12.503Z,-1.22
2019-02-06T19:36:14.071Z,-1.35
2019-02-06T19:41:15.912Z,-1.62
2019-02-06T19:46:17.714Z,-1.56
2019-02-06T19:51:19.434Z,-1.40
2019-02-06T19:56:21.021Z,-1.38
2019-02-06T20:01:22.860Z,-1.51
2019-02-06T20:06:26.217Z,-1.73
2019-02-06T20:11:28.486Z,-1.91
2019-02-06T20:16:29.985Z,-1.90
2019-02-06T20:21:31.583Z,-2.00
2019-02-06T20:26:33.303Z,-2.14
2019-02-06T20:31:34.832Z,-2.17
2019-02-06T20:36:36.294Z,-2.34
2019-02-06T20:41:38.307Z,-2.39
2019-02-06T20:46:39.516Z,-2.40
2019-02-06T20:51:41.124Z,-2.58
2019-02-06T20:56:42.869Z,-2.68
2019-02-06T21:01:44.861Z,-2.61
2019-02-06T21:06:46.247Z,-2.51
2019-02-06T21:11:47.447Z,-2.72
2019-02-06T21:16:48.829Z,-2.87
2019-02-06T21:21:50.346Z,-2.89
2019-02-06T21:26:51.794Z,-2.91
2019-02-06T21:31:53.397Z,-2.86
2019-02-06T21:36:56.108Z,-2.80
2019-02-06T21:41:57.672Z,-2.97
2019-02-06T21:46:59.340Z,-3.12
2019-02-06T21:52:00.840Z,-3.07
2019-02-06T21:57:02.183Z,-3.15
2019-02-06T22:02:03.504Z,-3.11
2019-02-06T22:07:04.839Z,-2.96
2019-02-06T22:12:06.355Z,-2.85
2019-02-06T22:17:07.647Z,-2.94
2019-02-06T22:22:09.059Z,-3.23
2019-02-06T22:27:10.602Z,-3.37
2019-02-06T22:32:12.261Z,-3.35
2019-02-06T22:37:13.474Z,-3.27
2019-02-06T22:42:14.888Z,-3.51
2019-02-06T22:47:16.350Z,-3.54
2019-02-06T22:52:17.657Z,-3.49
2019-02-06T22:57:19.193Z,-3.52
2019-02-06T23:02:20.383Z,-3.55
2019-02-06T23:07:21.874Z,-3.63
2019-02-06T23:12:23.765Z,-3.66
2019-02-06T23:17:25.227Z,-3.65
2019-02-06T23:22:26.878Z,-3.42
2019-02-06T23:27:28.360Z,-3.49
2019-02-06T23:32:29.763Z,-3.56
2019-02-06T23:37:31.563Z,-3.48
2019-02-06T23:42:32.962Z,-3.59
2019-02-06T23:47:34.474Z,-3.71
2019-02-06T23:52:35.971Z,-3.71
2019-02-06T23:57:37.104Z,-3.81
